createdAt,value
2022-10-10T00:02:43.088Z,99724.19
2022-10-10T00:12:16.509Z,99725.32
2022-10-10T00:21:51.767Z,99723.61
2022-10-10T00:31:23.333Z,99715.89
2022-10-10T00:40:57.389Z,99706.91
2022-10-10T00:50:30.677Z,99711.48
2022-10-10T01:00:04.485Z,99713.22
2022-10-10T01:09:38.151Z,99704.34
2022-10-10T01:19:13.424Z,99705.63
2022-10-10T01:28:45.629Z,99691.92
2022-10-10T01:38:19.575Z,99689.09
2022-10-10T01:47:54.616Z,99684.27
2022-10-10T01:57:28.576Z,99685.83
2022-10-10T02:07:02.307Z,99677.99
2022-10-10T02:16:34.322Z,99664.46
2022-10-10T02:26:08.285Z,99663.69
2022-10-10T02:35:42.185Z,99663.31
2022-10-10T02:45:16.297Z,99663.16
2022-10-10T02:54:50.353Z,99670.85
2022-10-10T03:04:24.202Z,99673.11
2022-10-10T03:13:58.152Z,99666.92
2022-10-10T03:23:31.236Z,99669.06
2022-10-10T03:33:06.435Z,99670.58
2022-10-10T03:42:38.718Z,99662.88
2022-10-10T03:52:12.529Z,99661.59
2022-10-10T04:01:46.389Z,99657.97
2022-10-10T04:11:21.851Z,99659.31
2022-10-10T04:20:55.489Z,99659.29
2022-10-10T04:30:29.297Z,99658.45
2022-10-10T04:40:01.580Z,99672.43
2022-10-10T04:49:35.739Z,99680.69
2022-10-10T04:59:09.797Z,99682.14
2022-10-10T05:08:43.725Z,99674.42
2022-10-10T05:18:17.615Z,99677.55
2022-10-10T05:27:51.730Z,99680.58
2022-10-10T05:37:26.086Z,99672.74
2022-10-10T05:47:00.392Z,99661.33
2022-10-10T05:56:32.418Z,99671.50
2022-10-10T06:06:07.422Z,99691.44
2022-10-10T06:15:39.455Z,99689.63
2022-10-10T06:25:29.300Z,99699.92
2022-10-10T06:34:47.106Z,99706.52
2022-10-10T06:44:22.901Z,99710.44
2022-10-10T06:53:57.075Z,99721.77
2022-10-10T07:03:31.511Z,99743.07
2022-10-10T07:13:05.417Z,99746.67
2022-10-10T07:22:39.960Z,99763.05
2022-10-10T07:32:12.600Z,99748.20
2022-10-10T07:41:48.922Z,99737.22
2022-10-10T07:51:21.371Z,99746.74
2022-10-10T08:00:55.801Z,99747.88
2022-10-10T08:10:31.984Z,99753.19
2022-10-10T08:20:04.836Z,99761.72
2022-10-10T08:29:39.312Z,99750.14
2022-10-10T08:30:43.425Z,99744.94
2022-10-10T08:40:16.056Z,99737.52
2022-10-10T08:41:20.115Z,99739.49
2022-10-10T08:50:53.949Z,99729.55
2022-10-10T08:51:56.200Z,99728.98
2022-10-10T08:52:58.675Z,99726.94
2022-10-10T08:54:01.113Z,99727.07
2022-10-10T08:55:05.243Z,99732.14
2022-10-10T08:56:09.169Z,99732.34
2022-10-10T08:57:11.512Z,99731.56
2022-10-10T08:58:15.591Z,99725.95
2022-10-10T08:59:17.864Z,99730.38
2022-10-10T09:00:20.431Z,99733.84
2022-10-10T09:01:26.432Z,99736.74
2022-10-10T09:02:38.215Z,99733.23
2022-10-10T09:11:59.499Z,99730.02
2022-10-10T09:13:02.055Z,99734.89
2022-10-10T09:14:06.165Z,99732.28
2022-10-10T09:15:08.493Z,99730.37
2022-10-10T09:16:10.930Z,99731.67
2022-10-10T09:17:13.383Z,99735.94
2022-10-10T09:18:17.421Z,99735.49
2022-10-10T09:19:19.755Z,99728.41
2022-10-10T09:20:22.161Z,99725.34
2022-10-10T09:21:24.616Z,99731.98
2022-10-10T09:22:27.118Z,99733.58
2022-10-10T09:23:31.185Z,99726.52
2022-10-10T09:24:35.859Z,99728.76
2022-10-10T09:25:37.493Z,99726.19
2022-10-10T09:26:39.913Z,99723.29
2022-10-10T09:27:43.963Z,99726.27
2022-10-10T09:28:46.366Z,99729.58
2022-10-10T09:29:50.415Z,99728.12
2022-10-10T09:30:54.408Z,99727.89
2022-10-10T09:31:56.670Z,99721.66
2022-10-10T09:33:00.723Z,99718.88
2022-10-10T09:34:03.054Z,99723.67
2022-10-10T09:35:05.504Z,99724.83
2022-10-10T09:36:07.982Z,99720.27
2022-10-10T09:37:16.381Z,99717.06
2022-10-10T09:38:14.482Z,99719.51
2022-10-10T09:39:18.489Z,99715.05
2022-10-10T09:40:20.846Z,99715.43
2022-10-10T09:49:53.612Z,99727.27
2022-10-10T09:50:57.781Z,99726.45
2022-10-10T09:52:01.573Z,99722.23
2022-10-10T09:53:03.919Z,99722.30
2022-10-10T09:54:07.968Z,99718.05
2022-10-10T09:55:10.391Z,99717.92
2022-10-10T09:56:12.857Z,99720.42
2022-10-10T09:57:15.327Z,99717.96
2022-10-10T09:58:19.439Z,99712.30
2022-10-10T09:59:21.794Z,99711.88
2022-10-10T10:00:24.263Z,99713.17
2022-10-10T10:01:28.382Z,99717.17
2022-10-10T10:02:32.236Z,99716.33
2022-10-10T10:03:34.567Z,99720.22
2022-10-10T10:04:37.008Z,99708.06
2022-10-10T10:05:39.480Z,99712.80
2022-10-10T10:06:42.923Z,99709.16
2022-10-10T10:07:45.313Z,99712.41
2022-10-10T10:08:50.029Z,99706.39
2022-10-10T10:09:51.743Z,99709.43
2022-10-10T10:10:57.226Z,99713.39
2022-10-10T10:12:00.920Z,99715.02
2022-10-10T10:13:04.216Z,99718.28
2022-10-10T10:14:06.568Z,99722.93
2022-10-10T10:15:09.027Z,99724.80
2022-10-10T10:16:11.468Z,99717.54
2022-10-10T10:17:15.561Z,99721.27
2022-10-10T10:18:18.004Z,99719.63
2022-10-10T10:19:20.431Z,99725.03
2022-10-10T10:20:22.960Z,99724.22
2022-10-10T10:21:27.021Z,99722.44
2022-10-10T10:22:31.007Z,99722.21
2022-10-10T10:23:34.961Z,99719.88
2022-10-10T10:24:37.383Z,99717.73
2022-10-10T10:25:39.787Z,99724.25
2022-10-10T10:26:42.386Z,99720.56
2022-10-10T10:27:44.819Z,99727.65
2022-10-10T10:28:47.358Z,99726.05
2022-10-10T10:29:49.735Z,99726.44
2022-10-10T10:30:53.791Z,99732.58
2022-10-10T10:31:56.145Z,99726.72
2022-10-10T10:32:58.622Z,99725.33
2022-10-10T10:34:01.088Z,99727.24
2022-10-10T10:35:04.474Z,99730.84
2022-10-10T10:36:06.950Z,99732.83
2022-10-10T10:37:12.710Z,99735.32
2022-10-10T10:38:11.943Z,99734.51
2022-10-10T10:39:14.411Z,99732.52
2022-10-10T10:40:16.870Z,99736.67
2022-10-10T10:41:19.431Z,99731.92
2022-10-10T10:42:21.893Z,99735.16
2022-10-10T10:43:26.142Z,99736.61
2022-10-10T10:44:30.126Z,99733.72
2022-10-10T10:45:34.143Z,99731.69
2022-10-10T10:46:36.509Z,99733.12
2022-10-10T10:47:39.163Z,99730.23
2022-10-10T10:48:41.769Z,99725.38
2022-10-10T10:49:44.531Z,99725.93
2022-10-10T10:50:47.023Z,99728.84
2022-10-10T10:51:49.454Z,99729.33
2022-10-10T10:52:51.918Z,99727.83
2022-10-10T10:53:56.996Z,99730.17
2022-10-10T10:55:00.914Z,99728.50
2022-10-10T10:56:03.400Z,99730.06
2022-10-10T10:57:06.532Z,99726.88
2022-10-10T10:58:49.083Z,99722.92
2022-10-10T10:59:36.149Z,99724.42
2022-10-10T11:00:16.859Z,99727.29
2022-10-10T11:01:28.978Z,99724.06
2022-10-10T11:02:37.150Z,99722.67
2022-10-10T11:05:15.362Z,99719.04
2022-10-10T11:05:21.773Z,99722.58
2022-10-10T11:05:40.685Z,99720.59
2022-10-10T11:06:37.744Z,99720.27
2022-10-10T11:07:38.466Z,99725.98
2022-10-10T11:08:40.884Z,99723.13
2022-10-10T11:09:49.942Z,99730.24
2022-10-10T11:10:47.354Z,99729.88
2022-10-10T11:11:49.687Z,99734.47
2022-10-10T11:12:53.746Z,99734.27
2022-10-10T11:22:24.842Z,99736.17
2022-10-10T11:23:27.364Z,99729.29
2022-10-10T11:24:31.491Z,99732.31
2022-10-10T11:25:36.573Z,99730.95
2022-10-10T11:26:40.431Z,99731.31
2022-10-10T11:27:44.404Z,99729.78
2022-10-10T11:28:49.389Z,99725.52
2022-10-10T11:29:49.267Z,99725.44
2022-10-10T11:30:51.749Z,99727.84
2022-10-10T11:31:54.234Z,99727.78
2022-10-10T11:32:56.906Z,99724.48
2022-10-10T11:34:01.007Z,99726.42
2022-10-10T11:35:05.109Z,99724.47
2022-10-10T11:36:07.470Z,99728.97
2022-10-10T11:37:11.720Z,99722.18
2022-10-10T11:38:14.073Z,99724.60
2022-10-10T11:39:16.606Z,99725.33
2022-10-10T11:40:19.037Z,99714.10
2022-10-10T11:41:23.116Z,99715.80
2022-10-10T11:42:25.586Z,99718.02
2022-10-10T11:43:28.326Z,99718.69
2022-10-10T11:44:30.903Z,99718.39
2022-10-10T11:45:33.423Z,99724.44
2022-10-10T11:46:36.155Z,99718.91
2022-10-10T11:47:38.678Z,99718.23
2022-10-10T11:48:41.183Z,99719.80
2022-10-10T11:49:43.667Z,99717.06
2022-10-10T11:50:46.137Z,99719.14
2022-10-10T11:51:48.634Z,99715.85
2022-10-10T11:52:52.690Z,99721.24
2022-10-10T11:53:55.055Z,99720.75
2022-10-10T11:54:57.629Z,99719.66
2022-10-10T11:56:00.332Z,99713.87
2022-10-10T11:57:02.565Z,99713.52
2022-10-10T11:58:05.022Z,99713.86
2022-10-10T11:59:07.495Z,99717.41
2022-10-10T12:00:10.093Z,99713.48
2022-10-10T12:01:14.087Z,99714.45
2022-10-10T12:02:16.448Z,99712.91
2022-10-10T12:03:18.988Z,99712.19
2022-10-10T12:04:23.036Z,99713.97
2022-10-10T12:05:25.339Z,99714.20
2022-10-10T12:06:27.848Z,99715.38
2022-10-10T12:07:30.297Z,99713.39
2022-10-10T12:08:32.855Z,99712.91
2022-10-10T12:09:36.184Z,99712.73
2022-10-10T12:10:39.613Z,99707.66
2022-10-10T12:11:43.579Z,99711.77
2022-10-10T12:12:45.920Z,99707.22
2022-10-10T12:13:50.002Z,99708.75
2022-10-10T12:14:52.512Z,99708.19
2022-10-10T12:15:56.483Z,99710.59
2022-10-10T12:16:58.936Z,99708.24
2022-10-10T12:18:01.531Z,99711.30
2022-10-10T12:19:05.699Z,99711.69
2022-10-10T12:20:08.006Z,99711.88
2022-10-10T12:21:10.479Z,99712.11
2022-10-10T12:22:18.139Z,99710.32
2022-10-10T12:23:17.010Z,99712.73
2022-10-10T12:24:19.490Z,99710.55
2022-10-10T12:25:23.581Z,99715.14
2022-10-10T12:26:26.094Z,99709.85
2022-10-10T12:27:28.567Z,99711.98
2022-10-10T12:28:31.093Z,99706.33
2022-10-10T12:29:33.511Z,99707.61
2022-10-10T12:30:35.977Z,99707.53
2022-10-10T12:31:38.465Z,99710.38
2022-10-10T12:32:40.994Z,99708.58
2022-10-10T12:33:43.503Z,99707.14
2022-10-10T12:34:45.976Z,99700.95
2022-10-10T12:35:48.501Z,99702.29
2022-10-10T12:36:50.971Z,99700.41
2022-10-10T12:37:55.044Z,99695.36
2022-10-10T12:39:00.635Z,99694.95
2022-10-10T12:40:01.633Z,99692.47
2022-10-10T12:41:04.349Z,99691.48
2022-10-10T12:42:06.520Z,99687.40
2022-10-10T12:43:13.961Z,99686.94
2022-10-10T12:44:16.088Z,99685.69
2022-10-10T12:45:18.570Z,99679.98
2022-10-10T12:46:22.651Z,99684.93
2022-10-10T12:47:32.215Z,99683.05
2022-10-10T12:48:27.513Z,99681.42
2022-10-10T12:49:30.021Z,99685.79
2022-10-10T12:50:34.158Z,99681.84
2022-10-10T12:51:38.172Z,99684.55
2022-10-10T12:52:42.137Z,99682.16
2022-10-10T12:53:46.152Z,99683.03
2022-10-10T12:54:48.479Z,99682.13
2022-10-10T12:55:52.827Z,99681.02
2022-10-10T12:56:55.087Z,99681.09
2022-10-10T12:57:59.168Z,99680.59
2022-10-10T12:59:01.523Z,99681.34
2022-10-10T13:00:04.002Z,99683.39
2022-10-10T13:01:07.019Z,99684.00
2022-10-10T13:02:09.187Z,99685.44
2022-10-10T13:03:11.624Z,99685.30
2022-10-10T13:04:14.171Z,99682.01
2022-10-10T13:05:18.354Z,99686.88
2022-10-10T13:06:20.657Z,99684.23
2022-10-10T13:07:23.170Z,99683.05
2022-10-10T13:08:27.311Z,99680.08
2022-10-10T13:09:35.040Z,99682.28
2022-10-10T13:10:35.295Z,99681.79
2022-10-10T13:11:37.680Z,99680.20
2022-10-10T13:21:09.667Z,99680.79
2022-10-10T13:22:12.195Z,99676.86
2022-10-10T13:23:16.296Z,99678.78
2022-10-10T13:24:19.738Z,99683.31
2022-10-10T13:25:22.197Z,99680.09
2022-10-10T13:26:26.311Z,99677.52
2022-10-10T13:27:30.279Z,99682.08
2022-10-10T13:28:34.311Z,99677.70
2022-10-10T13:29:38.247Z,99683.18
2022-10-10T13:30:40.575Z,99674.13
2022-10-10T13:31:44.685Z,99680.59
2022-10-10T13:32:47.036Z,99680.63
2022-10-10T13:33:49.526Z,99679.50
2022-10-10T13:34:52.047Z,99679.05
2022-10-10T13:35:54.515Z,99681.73
2022-10-10T13:36:56.997Z,99676.39
2022-10-10T13:37:59.457Z,99677.38
2022-10-10T13:39:01.977Z,99677.57
2022-10-10T13:40:06.066Z,99676.83
2022-10-10T13:41:08.327Z,99679.70
2022-10-10T13:42:10.833Z,99678.13
2022-10-10T13:43:14.912Z,99674.88
2022-10-10T13:44:17.343Z,99672.69
2022-10-10T13:45:19.868Z,99670.98
2022-10-10T13:46:22.317Z,99678.27
2022-10-10T13:47:26.496Z,99678.75
2022-10-10T13:48:30.367Z,99678.77
2022-10-10T13:49:34.401Z,99674.52
2022-10-10T13:50:36.788Z,99676.34
2022-10-10T13:51:39.244Z,99673.53
2022-10-10T13:52:44.341Z,99676.19
2022-10-10T13:53:48.336Z,99676.02
2022-10-10T13:54:50.672Z,99672.43
2022-10-10T13:55:53.226Z,99672.30
2022-10-10T13:56:55.662Z,99672.59
2022-10-10T13:58:01.817Z,99674.96
2022-10-10T13:59:03.153Z,99671.03
2022-10-10T14:00:08.329Z,99669.94
2022-10-10T14:01:10.619Z,99676.96
2022-10-10T14:02:14.682Z,99673.81
2022-10-10T14:03:17.044Z,99677.17
2022-10-10T14:04:21.152Z,99677.50
2022-10-10T14:05:23.562Z,99677.59
2022-10-10T14:06:27.696Z,99678.28
2022-10-10T14:07:30.164Z,99680.22
2022-10-10T14:08:34.337Z,99683.77
2022-10-10T14:09:36.698Z,99679.03
2022-10-10T14:10:39.197Z,99680.79
2022-10-10T14:11:41.736Z,99682.94
2022-10-10T14:12:44.229Z,99679.96
2022-10-10T14:13:46.742Z,99679.22
2022-10-10T14:14:49.202Z,99680.34
2022-10-10T14:15:51.718Z,99679.50
2022-10-10T14:16:55.756Z,99680.89
2022-10-10T14:17:58.096Z,99679.91
2022-10-10T14:19:02.228Z,99678.60
2022-10-10T14:20:04.571Z,99677.95
2022-10-10T14:21:08.636Z,99676.95
2022-10-10T14:22:11.028Z,99673.38
2022-10-10T14:23:15.113Z,99676.71
2022-10-10T14:24:18.454Z,99679.38
2022-10-10T14:25:22.437Z,99679.77
2022-10-10T14:26:24.773Z,99677.41
2022-10-10T14:27:27.243Z,99677.12
2022-10-10T14:28:29.791Z,99676.83
2022-10-10T14:29:32.232Z,99673.95
2022-10-10T14:30:34.803Z,99676.77
2022-10-10T14:31:37.324Z,99675.83
2022-10-10T14:32:39.868Z,99672.42
2022-10-10T14:33:42.348Z,99675.71
2022-10-10T14:34:44.928Z,99674.09
2022-10-10T14:35:47.372Z,99673.46
2022-10-10T14:36:51.534Z,99673.30
2022-10-10T14:37:53.867Z,99672.08
2022-10-10T14:38:56.386Z,99674.06
2022-10-10T14:39:58.924Z,99672.16
2022-10-10T14:41:03.331Z,99674.24
2022-10-10T14:42:06.990Z,99666.91
2022-10-10T14:43:09.385Z,99670.61
2022-10-10T14:44:11.933Z,99671.06
2022-10-10T14:45:14.442Z,99672.42
2022-10-10T14:46:16.909Z,99670.62
2022-10-10T14:47:19.431Z,99670.48
2022-10-10T14:48:21.940Z,99670.44
2022-10-10T14:49:25.428Z,99666.23
2022-10-10T14:50:27.861Z,99662.99
2022-10-10T14:51:33.442Z,99664.58
2022-10-10T14:52:35.963Z,99665.41
2022-10-10T14:53:38.331Z,99668.23
2022-10-10T14:54:40.789Z,99672.33
2022-10-10T14:55:43.281Z,99664.64
2022-10-10T14:57:08.159Z,99664.80
2022-10-10T14:57:48.289Z,99661.89
2022-10-10T14:58:50.847Z,99659.52
2022-10-10T14:59:53.343Z,99660.84
2022-10-10T15:00:55.895Z,99661.59
2022-10-10T15:01:58.425Z,99658.54
2022-10-10T15:03:00.930Z,99657.48
2022-10-10T15:04:08.940Z,99659.23
2022-10-10T15:05:12.756Z,99659.45
2022-10-10T15:06:15.097Z,99659.03
2022-10-10T15:07:20.196Z,99662.79
2022-10-10T15:08:23.518Z,99669.28
2022-10-10T15:09:40.833Z,99668.38
2022-10-10T15:10:34.198Z,99667.55
2022-10-10T15:11:32.347Z,99669.02
2022-10-10T15:12:34.963Z,99669.73
2022-10-10T15:13:37.391Z,99675.16
2022-10-10T15:14:39.887Z,99670.16
2022-10-10T15:15:43.967Z,99673.84
2022-10-10T15:16:47.956Z,99675.80
2022-10-10T15:17:51.998Z,99673.71
2022-10-10T15:18:54.780Z,99673.80
2022-10-10T15:19:56.763Z,99672.01
2022-10-10T15:21:01.406Z,99673.70
2022-10-10T15:22:03.635Z,99678.09
2022-10-10T15:23:06.145Z,99673.34
2022-10-10T15:24:10.228Z,99668.55
2022-10-10T15:25:14.347Z,99669.93
2022-10-10T15:26:16.638Z,99666.04
2022-10-10T15:27:19.243Z,99666.27
2022-10-10T15:28:21.671Z,99666.73
2022-10-10T15:29:24.190Z,99663.33
2022-10-10T15:30:26.721Z,99664.24
2022-10-10T15:31:29.162Z,99657.19
2022-10-10T15:32:31.696Z,99659.35
2022-10-10T15:33:35.759Z,99653.27
2022-10-10T15:34:38.136Z,99655.55
2022-10-10T15:36:04.281Z,99653.43
2022-10-10T15:36:43.151Z,99661.38
2022-10-10T15:37:45.639Z,99662.77
2022-10-10T15:38:48.138Z,99660.10
2022-10-10T15:39:52.237Z,99668.44
2022-10-10T15:40:56.270Z,99667.61
2022-10-10T15:42:03.823Z,99662.59
2022-10-10T15:43:01.129Z,99668.91
2022-10-10T15:44:03.587Z,99665.94
2022-10-10T15:45:06.054Z,99665.06
2022-10-10T15:46:10.129Z,99667.38
2022-10-10T15:47:12.503Z,99669.28
2022-10-10T15:48:14.981Z,99668.80
2022-10-10T15:49:17.471Z,99676.66
2022-10-10T15:50:22.575Z,99677.16
2022-10-10T15:51:22.379Z,99679.16
2022-10-10T15:52:24.904Z,99681.84
2022-10-10T15:53:27.320Z,99681.74
2022-10-10T15:54:29.867Z,99679.72
2022-10-10T15:55:33.944Z,99680.03
2022-10-10T15:56:36.298Z,99683.02
2022-10-10T15:57:38.856Z,99682.56
2022-10-10T15:58:42.915Z,99684.35
2022-10-10T15:59:45.333Z,99679.69
2022-10-10T16:00:49.637Z,99678.63
2022-10-10T16:01:51.894Z,99683.27
2022-10-10T16:02:55.994Z,99686.23
2022-10-10T16:03:59.904Z,99680.15
2022-10-10T16:05:02.222Z,99684.20
2022-10-10T16:06:05.303Z,99686.66
2022-10-10T16:08:11.209Z,99694.45
2022-10-10T16:09:27.997Z,99692.31
2022-10-10T16:10:20.202Z,99694.44
2022-10-10T16:11:24.072Z,99697.63
2022-10-10T16:12:28.040Z,99694.09
2022-10-10T16:13:31.971Z,99698.14
2022-10-10T16:14:35.999Z,99699.91
2022-10-10T16:15:38.286Z,99701.33
2022-10-10T16:16:42.367Z,99698.20
2022-10-10T16:17:44.772Z,99705.66
2022-10-10T16:18:48.839Z,99702.00
2022-10-10T16:19:51.221Z,99702.01
2022-10-10T16:20:53.665Z,99703.05
2022-10-10T16:21:56.123Z,99709.39
2022-10-10T16:23:00.228Z,99712.33
2022-10-10T16:24:04.169Z,99710.73
2022-10-10T16:33:34.295Z,99716.52
2022-10-10T16:34:36.898Z,99718.91
2022-10-10T16:44:12.209Z,99728.43
2022-10-10T16:53:44.592Z,99738.72
2022-10-10T17:03:19.078Z,99768.98
2022-10-10T17:12:53.433Z,99781.22
2022-10-10T17:22:27.262Z,99793.52
2022-10-10T17:32:05.868Z,99808.09
2022-10-10T17:41:37.160Z,99821.63
2022-10-10T17:51:11.585Z,99829.75
2022-10-10T18:00:45.895Z,99847.19
2022-10-10T18:10:19.842Z,99853.32
2022-10-10T18:19:52.664Z,99867.97
2022-10-10T18:29:27.381Z,99873.41
2022-10-10T18:39:01.455Z,99894.89
2022-10-10T18:48:33.402Z,99908.08
2022-10-10T18:58:09.420Z,99905.00
2022-10-10T19:07:41.205Z,99913.69
2022-10-10T19:17:15.181Z,99922.26
2022-10-10T19:26:50.816Z,99929.63
2022-10-10T19:36:24.336Z,99935.20
2022-10-10T19:45:59.641Z,99948.98
2022-10-10T19:55:32.271Z,99966.34
2022-10-10T20:05:06.450Z,99979.98
2022-10-10T20:14:40.644Z,99995.08
2022-10-10T20:24:16.608Z,100012.48
2022-10-10T20:33:50.843Z,100024.16
2022-10-10T20:43:23.310Z,100032.63
2022-10-10T20:52:57.743Z,100036.52
2022-10-10T21:02:33.669Z,100043.57
2022-10-10T21:12:07.949Z,100051.48
2022-10-10T21:21:42.565Z,100059.34
2022-10-10T21:31:16.729Z,100068.86
2022-10-10T21:40:49.137Z,100077.70
2022-10-10T21:50:23.329Z,100093.75
2022-10-10T21:59:59.292Z,100108.87
2022-10-10T22:09:32.014Z,100115.93
2022-10-10T22:19:06.077Z,100131.67
2022-10-10T22:28:42.285Z,100139.44
2022-10-10T22:38:14.565Z,100150.12
2022-10-10T22:47:50.237Z,100166.53
2022-10-10T22:57:23.966Z,100174.31
2022-10-10T23:06:57.999Z,100191.28
2022-10-10T23:16:32.977Z,100201.63
2022-10-10T23:26:06.591Z,100192.89
2022-10-10T23:35:38.649Z,100198.59
2022-10-10T23:45:14.690Z,100204.94
2022-10-10T23:54:46.755Z,100221.75
